createdAt,value
2019-05-07T00:00:43.763Z,1003.33
2019-05-07T00:01:42.305Z,1003.32
2019-05-07T00:02:42.803Z,1003.25
2019-05-07T00:03:42.248Z,1003.25
2019-05-07T00:04:42.821Z,1003.23
2019-05-07T00:05:42.736Z,1003.25
2019-05-07T00:06:43.428Z,1003.22
2019-05-07T00:07:42.495Z,1003.22
2019-05-07T00:08:44.627Z,1003.26
2019-05-07T00:09:43.067Z,1003.19
2019-05-07T00:10:42.466Z,1003.16
2019-05-07T00:11:42.609Z,1003.14
2019-05-07T00:12:43.136Z,1003.14
2019-05-07T00:13:44.084Z,1003.21
2019-05-07T00:14:42.998Z,1003.13
2019-05-07T00:15:42.771Z,1003.09
2019-05-07T00:16:42.321Z,1003.10
2019-05-07T00:17:42.876Z,1003.05
2019-05-07T00:18:42.879Z,1003.07
2019-05-07T00:19:43.227Z,1003.08
2019-05-07T00:20:42.394Z,1003.08
2019-05-07T00:21:42.431Z,1003.03
2019-05-07T00:22:41.991Z,1003.00
2019-05-07T00:23:43.237Z,1002.98
2019-05-07T00:24:52.330Z,1003.01
2019-05-07T00:25:42.280Z,1002.89
2019-05-07T00:26:43.093Z,1002.97
2019-05-07T00:27:42.727Z,1002.96
2019-05-07T00:28:43.219Z,1002.98
2019-05-07T00:29:42.921Z,1002.96
2019-05-07T00:30:42.507Z,1002.96
2019-05-07T00:31:42.128Z,1003.01
2019-05-07T00:32:42.396Z,1002.98
2019-05-07T00:33:43.213Z,1002.91
2019-05-07T00:34:42.473Z,1002.95
2019-05-07T00:35:42.906Z,1002.93
2019-05-07T00:36:42.106Z,1002.98
2019-05-07T00:37:43.120Z,1002.90
2019-05-07T00:38:42.729Z,1002.97
2019-05-07T00:39:42.446Z,1002.94
2019-05-07T00:40:42.586Z,1002.95
2019-05-07T00:41:42.678Z,1002.88
2019-05-07T00:42:42.020Z,1002.85
2019-05-07T00:43:42.866Z,1002.85
2019-05-07T00:44:42.225Z,1002.82
2019-05-07T00:45:42.126Z,1002.86
2019-05-07T00:46:42.734Z,1002.85
2019-05-07T00:47:42.599Z,1002.82
2019-05-07T00:48:42.255Z,1002.79
2019-05-07T00:49:42.575Z,1002.86
2019-05-07T00:50:42.066Z,1002.83
2019-05-07T00:51:42.438Z,1002.80
2019-05-07T00:52:42.999Z,1002.74
2019-05-07T00:53:42.377Z,1002.72
2019-05-07T00:54:42.219Z,1002.82
2019-05-07T00:55:52.807Z,1002.74
2019-05-07T00:56:42.887Z,1002.78
2019-05-07T00:57:42.858Z,1002.71
2019-05-07T00:58:42.814Z,1002.67
2019-05-07T00:59:42.908Z,1002.64
2019-05-07T01:00:42.060Z,1002.67
2019-05-07T01:01:43.282Z,1002.62
2019-05-07T01:02:43.097Z,1002.55
2019-05-07T01:03:42.452Z,1002.60
2019-05-07T01:04:42.266Z,1002.57
2019-05-07T01:05:43.197Z,1002.58
2019-05-07T01:06:42.416Z,1002.60
2019-05-07T01:07:41.919Z,1002.57
2019-05-07T01:08:42.990Z,1002.62
2019-05-07T01:09:43.030Z,1002.57
2019-05-07T01:10:41.935Z,1002.51
2019-05-07T01:11:42.870Z,1002.57
2019-05-07T01:12:42.290Z,1002.49
2019-05-07T01:13:43.069Z,1002.51
2019-05-07T01:14:42.022Z,1002.47
2019-05-07T01:15:43.013Z,1002.55
2019-05-07T01:16:42.095Z,1002.46
2019-05-07T01:17:42.571Z,1002.42
2019-05-07T01:18:42.045Z,1002.46
2019-05-07T01:19:42.298Z,1002.41
2019-05-07T01:20:42.255Z,1002.47
2019-05-07T01:21:43.084Z,1002.42
2019-05-07T01:22:42.427Z,1002.37
2019-05-07T01:23:42.751Z,1002.43
2019-05-07T01:24:42.929Z,1002.42
2019-05-07T01:25:42.986Z,1002.42
2019-05-07T01:26:52.967Z,1002.40
2019-05-07T01:27:42.687Z,1002.42
2019-05-07T01:28:42.150Z,1002.40
2019-05-07T01:29:42.935Z,1002.37
2019-05-07T01:30:43.054Z,1002.38
2019-05-07T01:31:42.995Z,1002.35
2019-05-07T01:32:42.518Z,1002.37
2019-05-07T01:33:42.380Z,1002.34
2019-05-07T01:34:42.809Z,1002.37
2019-05-07T01:35:42.363Z,1002.31
2019-05-07T01:36:42.727Z,1002.32
2019-05-07T01:37:42.174Z,1002.21
2019-05-07T01:38:42.700Z,1002.23
2019-05-07T01:39:42.195Z,1002.23
2019-05-07T01:40:42.806Z,1002.16
2019-05-07T01:41:41.973Z,1002.21
2019-05-07T01:42:42.366Z,1002.19
2019-05-07T01:43:42.815Z,1002.15
2019-05-07T01:44:42.031Z,1002.14
2019-05-07T01:45:46.364Z,1002.16
2019-05-07T01:46:42.281Z,1002.14
2019-05-07T01:47:42.484Z,1002.13
2019-05-07T01:48:42.788Z,1002.13
2019-05-07T01:49:42.173Z,1002.08
2019-05-07T01:50:42.812Z,1002.13
2019-05-07T01:51:42.286Z,1002.17
2019-05-07T01:52:42.660Z,1002.15
2019-05-07T01:53:42.839Z,1002.13
2019-05-07T01:54:42.470Z,1002.07
2019-05-07T01:55:42.734Z,1002.04
2019-05-07T01:56:42.677Z,1002.01
2019-05-07T01:57:52.278Z,1001.91
2019-05-07T01:58:42.515Z,1001.87
2019-05-07T01:59:42.653Z,1001.93
2019-05-07T02:00:42.434Z,1001.88
2019-05-07T02:01:42.884Z,1001.85
2019-05-07T02:02:42.520Z,1001.79
2019-05-07T02:03:42.035Z,1001.84
2019-05-07T02:04:42.623Z,1001.77
2019-05-07T02:05:42.427Z,1001.79
2019-05-07T02:06:40.519Z,1001.77
2019-05-07T02:07:42.770Z,1001.73
2019-05-07T02:08:42.252Z,1001.70
2019-05-07T02:09:42.412Z,1001.68
2019-05-07T02:10:42.660Z,1001.69
2019-05-07T02:11:42.250Z,1001.67
2019-05-07T02:12:42.417Z,1001.66
2019-05-07T02:13:42.046Z,1001.67
2019-05-07T02:14:42.263Z,1001.68
2019-05-07T02:15:42.641Z,1001.65
2019-05-07T02:16:41.886Z,1001.67
2019-05-07T02:17:40.398Z,1001.69
2019-05-07T02:18:42.388Z,1001.67
2019-05-07T02:19:42.377Z,1001.67
2019-05-07T02:20:42.476Z,1001.66
2019-05-07T02:21:42.381Z,1001.62
2019-05-07T02:22:42.581Z,1001.60
2019-05-07T02:23:42.416Z,1001.59
2019-05-07T02:24:40.322Z,1001.59
2019-05-07T02:25:42.015Z,1001.57
2019-05-07T02:26:42.530Z,1001.58
2019-05-07T02:27:42.092Z,1001.56
2019-05-07T02:28:51.866Z,1001.56
2019-05-07T02:29:40.268Z,1001.47
2019-05-07T02:30:44.048Z,1001.42
2019-05-07T02:31:43.770Z,1001.42
2019-05-07T02:32:43.111Z,1001.37
2019-05-07T02:33:43.109Z,1001.40
2019-05-07T02:34:43.721Z,1001.37
2019-05-07T02:35:40.211Z,1001.38
2019-05-07T02:36:42.976Z,1001.36
2019-05-07T02:37:48.381Z,1001.30
2019-05-07T02:38:44.128Z,1001.33
2019-05-07T02:39:40.155Z,1001.33
2019-05-07T02:40:43.082Z,1001.23
2019-05-07T02:41:40.149Z,1001.23
2019-05-07T02:42:40.130Z,1001.27
2019-05-07T02:43:42.862Z,1001.28
2019-05-07T02:44:43.636Z,1001.20
2019-05-07T02:45:40.098Z,1001.24
2019-05-07T02:46:43.143Z,1001.21
2019-05-07T02:47:40.085Z,1001.21
2019-05-07T02:48:42.734Z,1001.13
2019-05-07T02:49:40.060Z,1001.16
2019-05-07T02:50:40.085Z,1001.21
2019-05-07T02:51:43.227Z,1001.11
2019-05-07T02:52:43.398Z,1001.14
2019-05-07T02:53:42.853Z,1001.14
2019-05-07T02:54:40.027Z,1001.17
2019-05-07T02:55:43.280Z,1001.08
2019-05-07T02:56:42.976Z,1001.13
2019-05-07T02:57:43.253Z,1001.10
2019-05-07T02:58:39.969Z,1001.05
2019-05-07T02:59:54.463Z,1001.09
2019-05-07T03:00:43.095Z,1001.09
2019-05-07T03:01:43.030Z,1001.07
2019-05-07T03:02:39.914Z,1001.05
2019-05-07T03:03:39.897Z,1001.06
2019-05-07T03:04:39.891Z,1001.06
2019-05-07T03:05:42.820Z,1001.04
2019-05-07T03:06:39.870Z,1001.10
2019-05-07T03:07:42.457Z,1001.04
2019-05-07T03:08:39.845Z,1001.06
2019-05-07T03:09:42.818Z,1001.04
2019-05-07T03:10:39.828Z,1001.01
2019-05-07T03:11:39.813Z,1000.99
2019-05-07T03:12:42.795Z,1000.97
2019-05-07T03:13:39.805Z,1001.00
2019-05-07T03:14:39.781Z,1001.00
2019-05-07T03:15:39.770Z,1000.94
2019-05-07T03:16:47.590Z,1000.96
2019-05-07T03:17:42.977Z,1000.93
2019-05-07T03:18:39.787Z,1000.96
2019-05-07T03:19:42.772Z,1000.99
2019-05-07T03:20:42.813Z,1000.93
2019-05-07T03:21:39.708Z,1000.92
2019-05-07T03:22:42.632Z,1000.89
2019-05-07T03:23:42.681Z,1000.91
2019-05-07T03:24:39.698Z,1000.92
2019-05-07T03:25:42.982Z,1000.93
2019-05-07T03:26:39.650Z,1000.94
2019-05-07T03:27:39.639Z,1000.88
2019-05-07T03:28:39.633Z,1000.90
2019-05-07T03:29:39.623Z,1000.87
2019-05-07T03:30:56.196Z,1000.89
2019-05-07T03:31:46.073Z,1000.92
2019-05-07T03:32:46.675Z,1000.90
2019-05-07T03:33:46.404Z,1000.95
2019-05-07T03:34:45.724Z,1000.99
2019-05-07T03:35:45.801Z,1000.97
2019-05-07T03:36:46.567Z,1000.94
2019-05-07T03:37:43.366Z,1000.96
2019-05-07T03:38:39.534Z,1000.98
2019-05-07T03:39:39.523Z,1000.95
2019-05-07T03:40:39.545Z,1000.96
2019-05-07T03:41:39.496Z,1000.97
2019-05-07T03:42:39.486Z,1000.98
2019-05-07T03:43:39.500Z,1000.92
2019-05-07T03:44:39.459Z,1000.90
2019-05-07T03:45:39.449Z,1000.85
2019-05-07T03:46:53.063Z,1000.81
2019-05-07T03:47:43.545Z,1000.85
2019-05-07T03:48:39.442Z,1000.79
2019-05-07T03:49:39.422Z,1000.81
2019-05-07T03:50:39.414Z,1000.80
2019-05-07T03:51:39.395Z,1000.79
2019-05-07T03:52:42.608Z,1000.84
2019-05-07T03:53:39.390Z,1000.82
2019-05-07T03:54:39.349Z,1000.76
2019-05-07T03:55:39.363Z,1000.81
2019-05-07T03:56:39.351Z,1000.79
2019-05-07T03:57:39.321Z,1000.83
2019-05-07T03:58:39.373Z,1000.79
2019-05-07T03:59:39.301Z,1000.78
2019-05-07T04:00:39.290Z,1000.79
2019-05-07T04:01:49.920Z,1000.71
2019-05-07T04:02:39.268Z,1000.76
2019-05-07T04:03:39.257Z,1000.79
2019-05-07T04:04:39.287Z,1000.73
2019-05-07T04:05:39.233Z,1000.66
2019-05-07T04:06:39.223Z,1000.78
2019-05-07T04:07:39.218Z,1000.73
2019-05-07T04:08:39.205Z,1000.66
2019-05-07T04:09:39.208Z,1000.64
2019-05-07T04:10:39.193Z,1000.64
2019-05-07T04:11:39.181Z,1000.62
2019-05-07T04:12:39.163Z,1000.67
2019-05-07T04:13:39.156Z,1000.61
2019-05-07T04:14:39.140Z,1000.60
2019-05-07T04:15:39.153Z,1000.62
2019-05-07T04:16:39.119Z,1000.57
2019-05-07T04:17:39.114Z,1000.58
2019-05-07T04:18:39.096Z,1000.57
2019-05-07T04:19:39.085Z,1000.53
2019-05-07T04:20:39.077Z,1000.51
2019-05-07T04:21:39.084Z,1000.52
2019-05-07T04:22:39.051Z,1000.52
2019-05-07T04:23:39.041Z,1000.47
2019-05-07T04:24:39.043Z,1000.50
2019-05-07T04:25:39.036Z,1000.49
2019-05-07T04:26:39.017Z,1000.47
2019-05-07T04:27:39.035Z,1000.43
2019-05-07T04:28:38.995Z,1000.43
2019-05-07T04:29:38.980Z,1000.43
2019-05-07T04:30:38.982Z,1000.36
2019-05-07T04:31:38.968Z,1000.36
2019-05-07T04:32:52.785Z,1000.37
2019-05-07T04:33:38.935Z,1000.34
2019-05-07T04:34:38.922Z,1000.41
2019-05-07T04:35:38.921Z,1000.37
2019-05-07T04:36:38.911Z,1000.39
2019-05-07T04:37:38.887Z,1000.40
2019-05-07T04:38:38.916Z,1000.30
2019-05-07T04:39:38.870Z,1000.38
2019-05-07T04:40:38.863Z,1000.34
2019-05-07T04:41:38.855Z,1000.32
2019-05-07T04:42:38.851Z,1000.28
2019-05-07T04:43:38.825Z,1000.24
2019-05-07T04:44:38.859Z,1000.23
2019-05-07T04:45:38.816Z,1000.27
2019-05-07T04:46:38.798Z,1000.23
2019-05-07T04:47:46.356Z,1000.25
2019-05-07T04:48:39.775Z,1000.26
2019-05-07T04:49:38.764Z,1000.22
2019-05-07T04:50:43.545Z,1000.19
2019-05-07T04:51:39.792Z,1000.18
2019-05-07T04:52:38.729Z,1000.14
2019-05-07T04:53:38.737Z,1000.11
2019-05-07T04:54:38.715Z,1000.11
2019-05-07T04:55:38.701Z,1000.15
2019-05-07T04:56:38.683Z,1000.13
2019-05-07T04:57:38.710Z,1000.10
2019-05-07T04:58:38.664Z,1000.10
2019-05-07T04:59:38.658Z,1000.07
2019-05-07T05:00:38.642Z,1000.07
2019-05-07T05:01:38.628Z,1000.00
2019-05-07T05:02:38.630Z,1000.02
2019-05-07T05:03:54.005Z,1000.01
2019-05-07T05:04:38.611Z,999.99
2019-05-07T05:05:38.587Z,999.96
2019-05-07T05:06:38.577Z,999.95
2019-05-07T05:07:38.569Z,1000.03
2019-05-07T05:08:38.553Z,999.94
2019-05-07T05:09:38.590Z,999.98
2019-05-07T05:10:38.546Z,999.93
2019-05-07T05:11:38.542Z,999.95
2019-05-07T05:12:38.516Z,999.93
2019-05-07T05:13:38.509Z,999.93
2019-05-07T05:14:38.510Z,999.92
2019-05-07T05:15:38.518Z,999.91
2019-05-07T05:16:38.490Z,999.94
2019-05-07T05:17:49.709Z,999.90
2019-05-07T05:18:39.448Z,999.97
2019-05-07T05:19:38.434Z,999.84
2019-05-07T05:20:38.430Z,999.84
2019-05-07T05:21:38.431Z,999.87
2019-05-07T05:22:38.406Z,999.88
2019-05-07T05:23:38.404Z,999.82
2019-05-07T05:24:38.384Z,999.85
2019-05-07T05:25:38.413Z,999.83
2019-05-07T05:26:38.360Z,999.76
2019-05-07T05:27:38.365Z,999.82
2019-05-07T05:28:38.341Z,999.84
2019-05-07T05:29:38.326Z,999.78
2019-05-07T05:30:38.323Z,999.79
2019-05-07T05:31:38.317Z,999.73
2019-05-07T05:32:38.292Z,999.75
2019-05-07T05:33:38.290Z,999.79
2019-05-07T05:34:51.943Z,999.74
2019-05-07T05:35:38.266Z,999.75
2019-05-07T05:36:38.273Z,999.73
2019-05-07T05:37:38.245Z,999.68
2019-05-07T05:38:38.228Z,999.67
2019-05-07T05:39:38.226Z,999.69
2019-05-07T05:40:38.210Z,999.73
2019-05-07T05:41:38.212Z,999.68
2019-05-07T05:42:38.315Z,999.65
2019-05-07T05:43:38.181Z,999.64
2019-05-07T05:44:38.170Z,999.62
2019-05-07T05:45:38.156Z,999.59
2019-05-07T05:46:38.146Z,999.54
2019-05-07T05:47:38.134Z,999.59
2019-05-07T05:48:38.138Z,999.53
2019-05-07T05:49:38.115Z,999.53
2019-05-07T05:50:38.098Z,999.52
2019-05-07T05:51:38.099Z,999.50
2019-05-07T05:52:38.076Z,999.46
2019-05-07T05:53:38.068Z,999.43
2019-05-07T05:54:38.068Z,999.47
2019-05-07T05:55:38.047Z,999.47
2019-05-07T05:56:38.039Z,999.39
2019-05-07T05:57:38.028Z,999.44
2019-05-07T05:58:38.032Z,999.41
2019-05-07T05:59:48.974Z,999.42
2019-05-07T06:00:38.991Z,999.41
2019-05-07T06:01:37.985Z,999.39
2019-05-07T06:02:37.982Z,999.37
2019-05-07T06:03:37.959Z,999.42
2019-05-07T06:04:37.952Z,999.44
2019-05-07T06:05:48.990Z,999.44
2019-05-07T06:06:37.926Z,999.43
2019-05-07T06:07:37.922Z,999.43
2019-05-07T06:08:37.915Z,999.37
2019-05-07T06:09:37.894Z,999.41
2019-05-07T06:10:37.892Z,999.31
2019-05-07T06:11:37.891Z,999.26
2019-05-07T06:12:37.871Z,999.30
2019-05-07T06:13:37.877Z,999.29
2019-05-07T06:14:37.847Z,999.25
2019-05-07T06:15:37.837Z,999.23
2019-05-07T06:16:37.832Z,999.23
2019-05-07T06:17:37.817Z,999.23
2019-05-07T06:18:37.801Z,999.21
2019-05-07T06:19:37.832Z,999.17
2019-05-07T06:20:37.779Z,999.21
2019-05-07T06:21:37.767Z,999.20
2019-05-07T06:22:37.763Z,999.16
2019-05-07T06:23:37.765Z,999.14
2019-05-07T06:24:37.751Z,999.16
2019-05-07T06:25:37.765Z,999.12
2019-05-07T06:26:37.716Z,999.11
2019-05-07T06:27:37.718Z,999.10
2019-05-07T06:28:37.699Z,999.08
2019-05-07T06:29:37.691Z,999.07
2019-05-07T06:30:37.673Z,999.05
2019-05-07T06:31:37.745Z,999.04
2019-05-07T06:32:37.657Z,999.11
2019-05-07T06:33:37.649Z,999.09
2019-05-07T06:34:37.632Z,999.05
2019-05-07T06:35:37.723Z,999.05
2019-05-07T06:36:48.528Z,999.02
2019-05-07T06:37:37.599Z,999.05
2019-05-07T06:38:37.591Z,999.02
2019-05-07T06:39:37.580Z,999.01
2019-05-07T06:40:37.571Z,999.02
2019-05-07T06:41:37.563Z,999.00
2019-05-07T06:42:37.557Z,999.00
2019-05-07T06:43:37.538Z,998.95
2019-05-07T06:44:37.531Z,998.99
2019-05-07T06:45:37.533Z,998.94
2019-05-07T06:46:38.843Z,999.00
2019-05-07T06:47:37.512Z,999.00
2019-05-07T06:48:42.267Z,998.98
2019-05-07T06:49:38.483Z,999.05
2019-05-07T06:50:37.459Z,999.03
2019-05-07T06:51:37.451Z,999.01
2019-05-07T06:52:37.444Z,999.02
2019-05-07T06:53:37.437Z,998.97
2019-05-07T06:54:37.423Z,998.92
2019-05-07T06:55:37.413Z,999.01
2019-05-07T06:56:37.410Z,998.92
2019-05-07T06:57:37.387Z,998.94
2019-05-07T06:58:37.412Z,999.02
2019-05-07T06:59:37.367Z,998.94
2019-05-07T07:00:37.354Z,999.01
2019-05-07T07:01:37.342Z,999.00
2019-05-07T07:02:37.342Z,998.99
2019-05-07T07:03:37.331Z,998.95
2019-05-07T07:04:37.359Z,998.89
2019-05-07T07:05:37.302Z,998.88
2019-05-07T07:06:37.291Z,998.91
2019-05-07T07:07:47.456Z,998.94
2019-05-07T07:08:37.276Z,998.87
2019-05-07T07:09:37.259Z,998.89
2019-05-07T07:10:37.264Z,998.88
2019-05-07T07:11:37.281Z,998.92
2019-05-07T07:12:37.263Z,998.82
2019-05-07T07:13:37.223Z,998.82
2019-05-07T07:14:37.205Z,998.85
2019-05-07T07:15:37.239Z,998.82
2019-05-07T07:16:37.184Z,998.78
2019-05-07T07:17:37.177Z,998.80
2019-05-07T07:18:48.618Z,998.85
2019-05-07T07:19:38.217Z,998.71
2019-05-07T07:20:37.146Z,998.69
2019-05-07T07:21:37.176Z,998.72
2019-05-07T07:22:37.128Z,998.72
2019-05-07T07:23:37.118Z,998.67
2019-05-07T07:24:37.100Z,998.67
2019-05-07T07:25:37.088Z,998.72
2019-05-07T07:26:37.077Z,998.64
2019-05-07T07:27:37.091Z,998.64
2019-05-07T07:28:37.058Z,998.58
2019-05-07T07:29:37.060Z,998.62
2019-05-07T07:30:37.036Z,998.58
2019-05-07T07:31:37.027Z,998.53
2019-05-07T07:32:37.019Z,998.48
2019-05-07T07:33:37.042Z,998.51
2019-05-07T07:34:36.997Z,998.44
2019-05-07T07:35:36.987Z,998.43
2019-05-07T07:36:36.979Z,998.47
2019-05-07T07:37:36.962Z,998.33
2019-05-07T07:38:47.079Z,998.35
2019-05-07T07:39:36.939Z,998.31
2019-05-07T07:40:36.933Z,998.28
2019-05-07T07:41:36.920Z,998.28
2019-05-07T07:42:36.914Z,998.27
2019-05-07T07:43:36.902Z,998.24
2019-05-07T07:44:36.934Z,998.21
2019-05-07T07:45:36.882Z,998.24
2019-05-07T07:46:36.870Z,998.16
2019-05-07T07:47:36.856Z,998.17
2019-05-07T07:48:36.852Z,998.15
2019-05-07T07:49:36.839Z,998.14
2019-05-07T07:50:36.865Z,998.18
2019-05-07T07:51:41.765Z,998.14
2019-05-07T07:52:37.803Z,998.16
2019-05-07T07:53:36.799Z,998.15
2019-05-07T07:54:36.784Z,998.11
2019-05-07T07:55:36.779Z,998.10
2019-05-07T07:56:49.124Z,998.11
2019-05-07T07:57:37.753Z,998.01
2019-05-07T07:58:36.741Z,998.01
2019-05-07T07:59:36.735Z,998.09
2019-05-07T08:00:36.730Z,998.02
2019-05-07T08:01:36.709Z,998.07
2019-05-07T08:02:36.734Z,998.03
2019-05-07T08:03:36.689Z,998.07
2019-05-07T08:04:36.674Z,998.05
2019-05-07T08:05:36.665Z,998.04
2019-05-07T08:06:36.655Z,998.03
2019-05-07T08:07:36.649Z,998.03
2019-05-07T08:08:36.648Z,998.01
2019-05-07T08:09:46.970Z,997.99
2019-05-07T08:10:36.611Z,997.92
2019-05-07T08:11:36.613Z,997.93
2019-05-07T08:12:36.601Z,997.96
2019-05-07T08:13:36.618Z,997.93
2019-05-07T08:14:36.575Z,997.90
2019-05-07T08:15:36.561Z,997.93
2019-05-07T08:16:36.547Z,997.87
2019-05-07T08:17:36.542Z,997.85
2019-05-07T08:18:36.601Z,997.85
2019-05-07T08:19:36.528Z,997.84
2019-05-07T08:20:36.506Z,997.78
2019-05-07T08:21:36.498Z,997.80
2019-05-07T08:22:36.490Z,997.76
2019-05-07T08:23:36.481Z,997.77
2019-05-07T08:24:36.503Z,997.67
2019-05-07T08:25:36.452Z,997.73
2019-05-07T08:26:36.441Z,997.72
2019-05-07T08:27:36.438Z,997.71
2019-05-07T08:28:36.429Z,997.76
2019-05-07T08:29:36.413Z,997.71
2019-05-07T08:30:36.447Z,997.76
2019-05-07T08:31:36.390Z,997.71
2019-05-07T08:32:36.379Z,997.70
2019-05-07T08:33:36.373Z,997.67
2019-05-07T08:34:36.360Z,997.68
2019-05-07T08:35:36.348Z,997.68
2019-05-07T08:36:36.354Z,997.68
2019-05-07T08:37:36.332Z,997.72
2019-05-07T08:38:36.314Z,997.73
2019-05-07T08:39:36.306Z,997.68
2019-05-07T08:40:48.947Z,997.71
2019-05-07T08:41:36.283Z,997.68
2019-05-07T08:42:36.322Z,997.62
2019-05-07T08:43:36.268Z,997.62
2019-05-07T08:44:36.249Z,997.64
2019-05-07T08:45:36.370Z,997.67
2019-05-07T08:46:36.235Z,997.63
2019-05-07T08:47:36.226Z,997.65
2019-05-07T08:48:36.254Z,997.58
2019-05-07T08:49:39.884Z,997.61
2019-05-07T08:50:36.188Z,997.60
2019-05-07T08:51:36.177Z,997.57
2019-05-07T08:52:36.169Z,997.57
2019-05-07T08:53:36.155Z,997.52
2019-05-07T08:54:36.181Z,997.56
2019-05-07T08:55:36.146Z,997.54
2019-05-07T08:56:36.157Z,997.52
2019-05-07T08:57:36.118Z,997.53
2019-05-07T08:58:36.107Z,997.46
2019-05-07T08:59:36.091Z,997.46
2019-05-07T09:00:36.128Z,997.43
2019-05-07T09:01:36.073Z,997.38
2019-05-07T09:02:36.058Z,997.42
2019-05-07T09:03:36.050Z,997.37
2019-05-07T09:04:36.045Z,997.30
2019-05-07T09:05:36.029Z,997.30
2019-05-07T09:06:36.083Z,997.29
2019-05-07T09:07:36.014Z,997.28
2019-05-07T09:08:35.995Z,997.23
2019-05-07T09:09:35.991Z,997.25
2019-05-07T09:10:35.975Z,997.28
2019-05-07T09:11:46.690Z,997.24
2019-05-07T09:12:35.957Z,997.24
2019-05-07T09:13:35.943Z,997.29
2019-05-07T09:14:35.931Z,997.28
2019-05-07T09:15:35.927Z,997.29
2019-05-07T09:16:35.981Z,997.18
2019-05-07T09:17:35.905Z,997.20
2019-05-07T09:18:35.887Z,997.22
2019-05-07T09:19:47.252Z,997.19
2019-05-07T09:20:36.869Z,997.22
2019-05-07T09:21:35.860Z,997.18
2019-05-07T09:22:35.863Z,997.12
2019-05-07T09:23:35.837Z,997.16
2019-05-07T09:24:35.829Z,997.14
2019-05-07T09:25:35.816Z,997.15
2019-05-07T09:26:35.808Z,997.13
2019-05-07T09:27:35.794Z,997.15
2019-05-07T09:28:35.827Z,997.18
2019-05-07T09:29:35.776Z,997.15
2019-05-07T09:30:35.767Z,997.12
2019-05-07T09:31:35.749Z,997.17
2019-05-07T09:32:35.742Z,997.11
2019-05-07T09:33:35.735Z,997.09
2019-05-07T09:34:35.734Z,997.10
2019-05-07T09:35:35.713Z,997.04
2019-05-07T09:36:35.698Z,997.05
2019-05-07T09:37:35.687Z,997.13
2019-05-07T09:38:35.683Z,997.08
2019-05-07T09:39:35.669Z,997.03
2019-05-07T09:40:35.662Z,997.05
2019-05-07T09:41:35.685Z,997.00
2019-05-07T09:42:45.972Z,997.06
2019-05-07T09:43:35.626Z,997.02
2019-05-07T09:44:35.617Z,997.08
2019-05-07T09:45:35.602Z,997.08
2019-05-07T09:46:35.587Z,997.10
2019-05-07T09:47:35.592Z,997.14
2019-05-07T09:48:35.574Z,997.11
2019-05-07T09:49:35.565Z,997.08
2019-05-07T09:50:35.548Z,997.08
2019-05-07T09:51:35.537Z,997.08
2019-05-07T09:52:35.570Z,997.02
2019-05-07T09:53:35.516Z,997.01
2019-05-07T09:54:35.510Z,997.01
2019-05-07T09:55:35.491Z,996.99
2019-05-07T09:56:35.481Z,997.00
2019-05-07T09:57:35.473Z,997.05
2019-05-07T09:58:38.945Z,996.98
2019-05-07T09:59:35.456Z,996.95
2019-05-07T10:00:35.452Z,996.88
2019-05-07T10:01:35.428Z,996.85
2019-05-07T10:02:35.423Z,996.89
2019-05-07T10:03:35.409Z,996.87
2019-05-07T10:04:35.438Z,996.86
2019-05-07T10:05:35.394Z,996.83
2019-05-07T10:06:35.378Z,996.80
2019-05-07T10:07:35.363Z,996.76
2019-05-07T10:08:35.357Z,996.79
2019-05-07T10:09:35.344Z,996.78
2019-05-07T10:10:35.342Z,996.73
2019-05-07T10:11:35.319Z,996.75
2019-05-07T10:12:35.316Z,996.77
2019-05-07T10:13:47.105Z,996.77
2019-05-07T10:14:35.287Z,996.80
2019-05-07T10:15:35.323Z,996.78
2019-05-07T10:16:35.271Z,996.78
2019-05-07T10:17:35.260Z,996.75
2019-05-07T10:18:35.255Z,996.75
2019-05-07T10:19:35.239Z,996.75
2019-05-07T10:20:35.226Z,996.79
2019-05-07T10:21:35.258Z,996.75
2019-05-07T10:22:35.210Z,996.74
2019-05-07T10:23:35.206Z,996.80
2019-05-07T10:24:35.189Z,996.84
2019-05-07T10:25:35.176Z,996.85
2019-05-07T10:26:35.163Z,996.85
2019-05-07T10:27:35.207Z,996.89
2019-05-07T10:28:35.143Z,996.84
2019-05-07T10:29:35.131Z,996.85
2019-05-07T10:30:35.120Z,996.80
2019-05-07T10:31:35.106Z,996.83
2019-05-07T10:32:35.095Z,996.83
2019-05-07T10:33:35.125Z,996.84
2019-05-07T10:34:35.076Z,996.84
2019-05-07T10:35:35.067Z,996.81
2019-05-07T10:36:35.060Z,996.88
2019-05-07T10:37:35.043Z,996.89
2019-05-07T10:38:35.036Z,996.86
2019-05-07T10:39:35.038Z,996.88
2019-05-07T10:40:35.011Z,996.84
2019-05-07T10:41:35.003Z,996.86
2019-05-07T10:42:35.030Z,996.83
2019-05-07T10:43:34.980Z,996.73
2019-05-07T10:44:46.302Z,996.66
2019-05-07T10:45:34.979Z,996.73
2019-05-07T10:46:34.950Z,996.66
2019-05-07T10:47:34.951Z,996.63
2019-05-07T10:48:34.937Z,996.64
2019-05-07T10:49:34.931Z,996.59
2019-05-07T10:50:38.894Z,996.64
2019-05-07T10:51:34.904Z,996.57
2019-05-07T10:52:34.892Z,996.59
2019-05-07T10:53:34.876Z,996.65
2019-05-07T10:54:34.902Z,996.62
2019-05-07T10:55:34.888Z,996.58
2019-05-07T10:56:34.982Z,996.59
2019-05-07T10:57:34.834Z,996.63
2019-05-07T10:58:34.822Z,996.61
2019-05-07T10:59:34.816Z,996.63
2019-05-07T11:00:34.815Z,996.64
2019-05-07T11:01:34.828Z,996.62
2019-05-07T11:02:34.782Z,996.66
2019-05-07T11:03:34.802Z,996.69
2019-05-07T11:04:42.078Z,996.69
2019-05-07T11:05:35.744Z,996.62
2019-05-07T11:06:34.738Z,996.68
2019-05-07T11:07:34.821Z,996.61
2019-05-07T11:08:34.720Z,996.62
2019-05-07T11:09:34.711Z,996.57
2019-05-07T11:10:34.698Z,996.57
2019-05-07T11:11:34.683Z,996.52
2019-05-07T11:12:34.697Z,996.53
2019-05-07T11:13:34.680Z,996.49
2019-05-07T11:14:34.652Z,996.51
2019-05-07T11:15:44.878Z,996.49
2019-05-07T11:16:34.634Z,996.46
2019-05-07T11:17:34.626Z,996.46
2019-05-07T11:18:34.629Z,996.45
2019-05-07T11:19:34.635Z,996.41
2019-05-07T11:20:46.471Z,996.44
2019-05-07T11:21:35.577Z,996.36
2019-05-07T11:22:34.576Z,996.36
2019-05-07T11:23:34.562Z,996.43
2019-05-07T11:24:34.551Z,996.34
2019-05-07T11:25:34.576Z,996.44
2019-05-07T11:26:34.522Z,996.47
2019-05-07T11:27:34.516Z,996.46
2019-05-07T11:28:34.629Z,996.49
2019-05-07T11:29:36.553Z,996.48
2019-05-07T11:30:34.493Z,996.42
2019-05-07T11:31:34.478Z,996.45
2019-05-07T11:32:34.464Z,996.50
2019-05-07T11:33:34.453Z,996.53
2019-05-07T11:34:34.441Z,996.57
2019-05-07T11:35:34.434Z,996.57
2019-05-07T11:36:34.584Z,996.60
2019-05-07T11:37:34.410Z,996.60
2019-05-07T11:38:34.398Z,996.55
2019-05-07T11:39:34.392Z,996.60
2019-05-07T11:40:34.791Z,996.55
2019-05-07T11:41:34.364Z,996.53
2019-05-07T11:42:34.368Z,996.51
2019-05-07T11:43:34.346Z,996.49
2019-05-07T11:44:34.332Z,996.51
2019-05-07T11:45:34.327Z,996.53
2019-05-07T11:46:45.036Z,996.55
2019-05-07T11:47:34.327Z,996.50
2019-05-07T11:48:36.341Z,996.48
2019-05-07T11:49:34.278Z,996.46
2019-05-07T11:50:34.269Z,996.45
2019-05-07T11:51:34.264Z,996.38
2019-05-07T11:52:35.846Z,996.36
2019-05-07T11:53:34.292Z,996.35
2019-05-07T11:54:34.229Z,996.37
2019-05-07T11:55:34.216Z,996.36
2019-05-07T11:56:34.208Z,996.28
2019-05-07T11:57:34.196Z,996.26
2019-05-07T11:58:34.190Z,996.33
2019-05-07T11:59:34.217Z,996.34
2019-05-07T12:00:34.166Z,996.31
2019-05-07T12:01:43.547Z,996.30
2019-05-07T12:02:35.140Z,996.34
2019-05-07T12:03:34.136Z,996.38
2019-05-07T12:04:34.119Z,996.41
2019-05-07T12:05:34.150Z,996.40
2019-05-07T12:06:34.100Z,996.43
2019-05-07T12:07:34.087Z,996.31
2019-05-07T12:08:41.182Z,996.40
2019-05-07T12:09:35.070Z,996.36
2019-05-07T12:10:34.058Z,996.34
2019-05-07T12:11:34.055Z,996.32
2019-05-07T12:12:34.040Z,996.36
2019-05-07T12:13:34.031Z,996.35
2019-05-07T12:14:35.027Z,996.37
2019-05-07T12:15:34.097Z,996.37
2019-05-07T12:16:33.991Z,996.43
2019-05-07T12:17:44.008Z,996.46
2019-05-07T12:18:33.974Z,996.46